Shemah Yisrael!
Hear, O Israel: the LORD our God, the LORD is one.
You shall love the LORD your God with all your heart and with all your soul and with all your might.
(Deuteronomy 6:4-5)
Houston / Ellington, TX, United States (KEFD) 29-36N 095-10W
Feb 20, 2019 - 12:50 AM EST / 2019.02.20 0550 UTC
Wind: from the NW (310 degrees) at 7 MPH (6 KT):0
Visibility: 2 mile(s):0
Sky conditions: overcast
Weather: mist
Temperature: 48 F (9 C)
Dew Point: 48 F (9 C)
Relative Humidity: 100%
Pressure (altimeter): 29.86 in. Hg (1011 hPa)
ob: KEFD 200550Z 31006KT 2SM BR OVC003 09/09 A2986
cycle: 6
w e b m a s t e r   a t   s h e m a h   d o t   n e t